Time;durP1;ratioP1;P1;durP2;ratioP2;P2;SDS_P1;SDS_P2;PMS_P1;PMS_P2;Temp;Humidity;BMP_temperature;BMP_pressure;BME280_temperature;BME280_humidity;BME280_pressure;Samples;Min_cycle;Max_cycle;Signal;HPM_P1;HPM_P2
2021/08/11 00:01:35;;;;;;;;;;;17.00;99.90;;;;;;5085419;28;19916;-84
2021/08/11 00:04:00;;;;;;;;;;;17.00;99.90;;;;;;5086473;28;19920;-84
2021/08/11 00:06:26;;;;;;;;;;;17.00;99.90;;;;;;5099277;28;19954;-84
2021/08/11 00:08:51;;;;;;;;;;;17.00;99.90;;;;;;5095897;28;19912;-84
2021/08/11 00:11:17;;;;;;;;;;;17.00;99.90;;;;;;5089790;28;19979;-84
2021/08/11 00:13:43;;;;;;;;;;;17.00;99.90;;;;;;5086414;28;20312;-84
2021/08/11 00:16:09;;;;;;;;;;;17.00;99.90;;;;;;5096657;28;19952;-84
2021/08/11 00:18:35;;;;;;;;;;;17.00;99.90;;;;;;5099507;28;19935;-84
2021/08/11 00:21:00;;;;;;;;;;;17.00;99.90;;;;;;5092530;28;19917;-84
2021/08/11 00:23:25;;;;;;;;;;;17.00;99.90;;;;;;5093693;28;19912;-84
2021/08/11 00:25:54;;;;;;;;;;;17.00;99.90;;;;;;5079036;28;19977;-84
2021/08/11 00:28:20;;;;;;;;;;;16.90;99.90;;;;;;5093727;28;20383;-84
2021/08/11 00:30:45;;;;;;;;;;;16.90;99.90;;;;;;5099398;28;19919;-84
2021/08/11 00:33:11;;;;;;;;;;;17.00;99.90;;;;;;5089453;28;19913;-84
2021/08/11 00:35:36;;;;;;;;;;;17.00;99.90;;;;;;5095758;28;19919;-84
2021/08/11 00:38:02;;;;;;;;;;;17.00;99.90;;;;;;5082434;28;19919;-84
2021/08/11 00:40:28;;;;;;;;;;;17.00;99.90;;;;;;5081150;28;19983;-84
2021/08/11 00:42:55;;;;;;;;;;;17.00;99.90;;;;;;5091633;28;20255;-84
2021/08/11 00:45:20;;;;;;;;;;;17.00;99.90;;;;;;5079440;28;19942;-84
2021/08/11 00:47:49;;;;;;;;;;;17.00;99.90;;;;;;5091088;28;19916;-84
2021/08/11 00:50:15;;;;;;;;;;;16.90;99.90;;;;;;5083038;28;19917;-84
2021/08/11 00:52:40;;;;;;;;;;;16.90;99.90;;;;;;5079991;28;19913;-84
2021/08/11 00:55:06;;;;;;;;;;;16.90;99.90;;;;;;5088753;28;19912;-84
2021/08/11 00:57:31;;;;;;;;;;;16.90;99.90;;;;;;5078455;28;19991;-84
2021/08/11 00:59:58;;;;;;;;;;;16.90;99.90;;;;;;5089177;28;20394;-84
2021/08/11 01:02:23;;;;;;;;;;;16.80;99.90;;;;;;5091134;28;20007;-83
2021/08/11 01:04:51;;;;;;;;;;;16.80;99.90;;;;;;5094883;28;20449;-84
2021/08/11 01:07:19;;;;;;;;;;;16.80;99.90;;;;;;5079687;28;19913;-84
2021/08/11 01:09:44;;;;;;;;;;;16.70;99.90;;;;;;5081167;28;20397;-84
2021/08/11 01:12:10;;;;;;;;;;;16.70;99.90;;;;;;5085838;28;19912;-84
2021/08/11 01:14:36;;;;;;;;;;;16.70;99.90;;;;;;5085032;28;20570;-84
2021/08/11 01:17:03;;;;;;;;;;;16.70;99.90;;;;;;5099120;28;19912;-84
2021/08/11 01:19:30;;;;;;;;;;;16.70;99.90;;;;;;5085784;28;19912;-84
2021/08/11 01:22:05;;;;;;;;;;;16.70;99.90;;;;;;5094164;28;19938;-84
2021/08/11 01:24:39;;;;;;;;;;;16.60;99.90;;;;;;5093398;28;20311;-84
2021/08/11 01:27:05;;;;;;;;;;;16.60;99.90;;;;;;5080675;28;20458;-84
2021/08/11 01:29:55;;;;;;;;;;;16.50;99.90;;;;;;5083861;28;19912;-84
2021/08/11 01:32:43;;;;;;;;;;;16.60;99.90;;;;;;5090937;28;19954;-84
2021/08/11 01:35:11;;;;;;;;;;;16.50;99.90;;;;;;5092283;28;20351;-84
2021/08/11 01:37:38;;;;;;;;;;;16.50;99.90;;;;;;5095960;28;19912;-84
2021/08/11 01:40:05;;;;;;;;;;;16.50;99.90;;;;;;5094189;28;20299;-84
2021/08/11 01:42:41;;;;;;;;;;;16.50;99.90;;;;;;5088239;28;20285;-84
2021/08/11 01:45:12;;;;;;;;;;;16.40;99.90;;;;;;5083663;28;19931;-84
2021/08/11 01:47:45;;;;;;;;;;;16.40;99.90;;;;;;5082493;28;19916;-84
2021/08/11 01:50:12;;;;;;;;;;;16.30;99.90;;;;;;5096254;28;19919;-84
2021/08/11 01:52:42;;;;;;;;;;;16.30;99.90;;;;;;5092968;28;19913;-84
2021/08/11 01:55:09;;;;;;;;;;;16.30;99.90;;;;;;5099296;28;19912;-84
2021/08/11 01:57:37;;;;;;;;;;;16.20;99.90;;;;;;5082859;28;19916;-84
2021/08/11 02:00:03;;;;;;;;;;;16.10;99.90;;;;;;5083189;28;19958;-85
2021/08/11 02:02:28;;;;;;;;;;;16.20;99.90;;;;;;5082345;28;19920;-84
2021/08/11 02:04:54;;;;;;;;;;;16.10;99.90;;;;;;5079836;28;19917;-84
2021/08/11 02:07:19;;;;;;;;;;;16.10;99.90;;;;;;5094537;28;19919;-84
2021/08/11 02:09:45;;;;;;;;;;;16.00;99.90;;;;;;5098420;28;19916;-83
2021/08/11 02:12:11;;;;;;;;;;;16.00;99.90;;;;;;5098086;28;19912;-85
2021/08/11 02:14:38;;;;;;;;;;;15.90;99.90;;;;;;5089689;28;21859;-84
2021/08/11 02:17:03;;;;;;;;;;;16.00;99.90;;;;;;5081828;28;19918;-84
2021/08/11 02:19:29;;;;;;;;;;;16.00;99.90;;;;;;5082940;28;20007;-84
2021/08/11 02:21:57;;;;;;;;;;;15.90;99.90;;;;;;5080555;28;20407;-84
2021/08/11 02:24:22;;;;;;;;;;;15.90;99.90;;;;;;5093439;28;19913;-84
2021/08/11 02:26:57;;;;;;;;;;;15.90;99.90;;;;;;5091342;28;19918;-84
2021/08/11 02:29:25;;;;;;;;;;;15.90;99.90;;;;;;5084153;28;19982;-84
2021/08/11 02:31:54;;;;;;;;;;;15.90;99.90;;;;;;5081508;28;19956;-84
2021/08/11 02:34:34;;;;;;;;;;;15.90;99.90;;;;;;5079169;28;19909;-84
2021/08/11 02:37:08;;;;;;;;;;;15.90;99.90;;;;;;5081729;28;19920;-84
2021/08/11 02:39:46;;;;;;;;;;;15.90;99.90;;;;;;5088240;28;19916;-84
2021/08/11 02:42:16;;;;;;;;;;;15.90;99.90;;;;;;5089632;28;19917;-84
2021/08/11 02:44:45;;;;;;;;;;;15.80;99.90;;;;;;5080845;28;20300;-84
2021/08/11 02:47:11;;;;;;;;;;;15.80;99.90;;;;;;5082422;28;19916;-84
2021/08/11 02:49:36;;;;;;;;;;;15.80;99.90;;;;;;5094364;28;19935;-84
2021/08/11 02:52:02;;;;;;;;;;;15.80;99.90;;;;;;5099701;28;19930;-84
2021/08/11 02:54:28;;;;;;;;;;;15.70;99.90;;;;;;5092750;28;19912;-84
2021/08/11 02:56:54;;;;;;;;;;;15.70;99.90;;;;;;5102042;28;19951;-84
2021/08/11 02:59:24;;;;;;;;;;;15.70;99.90;;;;;;5092692;28;19904;-84
2021/08/11 03:01:52;;;;;;;;;;;15.70;99.90;;;;;;5091879;28;19917;-84
2021/08/11 03:04:17;;;;;;;;;;;15.60;99.90;;;;;;5089003;28;19971;-84
2021/08/11 03:06:43;;;;;;;;;;;15.60;99.90;;;;;;5087391;28;19947;-83
2021/08/11 03:09:08;;;;;;;;;;;15.60;99.90;;;;;;5091457;28;19922;-82
2021/08/11 03:11:35;;;;;;;;;;;15.60;99.90;;;;;;5076737;28;19912;-84
2021/08/11 03:14:01;;;;;;;;;;;15.50;99.90;;;;;;5079676;28;19919;-84
2021/08/11 03:16:27;;;;;;;;;;;15.50;99.90;;;;;;5079798;28;19947;-84
2021/08/11 03:18:53;;;;;;;;;;;15.50;99.90;;;;;;5087726;28;19912;-84
2021/08/11 03:21:18;;;;;;;;;;;15.50;99.90;;;;;;5105814;28;19926;-84
2021/08/11 03:23:46;;;;;;;;;;;15.50;99.90;;;;;;5096371;28;19923;-84
2021/08/11 03:26:12;;;;;;;;;;;15.40;99.90;;;;;;5087544;28;19913;-84
2021/08/11 03:28:37;;;;;;;;;;;15.40;99.90;;;;;;5081715;28;20358;-84
2021/08/11 03:31:03;;;;;;;;;;;15.40;99.90;;;;;;5089498;28;20533;-84
2021/08/11 03:33:28;;;;;;;;;;;15.40;99.90;;;;;;5095255;28;21291;-84
2021/08/11 03:35:54;;;;;;;;;;;15.40;99.90;;;;;;5080409;28;19916;-84
2021/08/11 03:38:19;;;;;;;;;;;15.30;99.90;;;;;;5084102;28;19913;-84
2021/08/11 03:40:45;;;;;;;;;;;15.40;99.90;;;;;;5100970;28;20006;-84
2021/08/11 03:43:10;;;;;;;;;;;15.30;99.90;;;;;;5085775;28;19913;-84
2021/08/11 03:45:36;;;;;;;;;;;15.40;99.90;;;;;;5094299;28;19940;-84
2021/08/11 03:48:02;;;;;;;;;;;15.40;99.90;;;;;;5092657;28;19966;-84
2021/08/11 03:50:27;;;;;;;;;;;15.30;99.90;;;;;;5083361;28;20279;-84
2021/08/11 03:52:53;;;;;;;;;;;15.30;99.90;;;;;;5088006;28;19913;-84
2021/08/11 03:55:19;;;;;;;;;;;15.30;99.90;;;;;;5103418;28;19912;-84
2021/08/11 03:57:44;;;;;;;;;;;15.30;99.90;;;;;;5099828;28;19923;-84
2021/08/11 04:00:10;;;;;;;;;;;15.30;99.90;;;;;;5088129;28;20371;-84
2021/08/11 04:02:36;;;;;;;;;;;15.30;99.90;;;;;;5088047;28;20117;-83
2021/08/11 04:05:05;;;;;;;;;;;15.30;99.90;;;;;;5089523;28;19913;-84
2021/08/11 04:07:30;;;;;;;;;;;15.30;99.90;;;;;;5083295;28;19916;-84
2021/08/11 04:09:56;;;;;;;;;;;15.30;99.90;;;;;;5081679;28;19953;-84
2021/08/11 04:12:21;;;;;;;;;;;15.30;99.90;;;;;;5095666;28;19973;-83
2021/08/11 04:14:47;;;;;;;;;;;15.30;99.90;;;;;;5092483;28;19957;-84
2021/08/11 04:17:12;;;;;;;;;;;15.30;99.90;;;;;;5083797;28;19919;-84
2021/08/11 04:19:38;;;;;;;;;;;15.30;99.90;;;;;;5094007;28;19966;-84
2021/08/11 04:22:03;;;;;;;;;;;15.30;99.90;;;;;;5083974;28;20387;-84
2021/08/11 04:24:29;;;;;;;;;;;15.30;99.90;;;;;;5084344;28;19921;-84
2021/08/11 04:26:54;;;;;;;;;;;15.30;99.90;;;;;;5088665;28;19912;-84
2021/08/11 04:29:20;;;;;;;;;;;15.30;99.90;;;;;;5089905;28;19919;-84
2021/08/11 04:31:45;;;;;;;;;;;15.30;99.90;;;;;;5078108;28;19912;-83
2021/08/11 04:34:13;;;;;;;;;;;15.30;99.90;;;;;;5075794;28;20003;-84
2021/08/11 04:36:39;;;;;;;;;;;15.40;99.90;;;;;;5079696;28;19920;-84
2021/08/11 04:39:04;;;;;;;;;;;15.40;99.90;;;;;;5081781;28;19912;-84
2021/08/11 04:41:30;;;;;;;;;;;15.50;99.90;;;;;;5099503;28;19924;-84
2021/08/11 04:43:55;;;;;;;;;;;15.50;99.90;;;;;;5087301;28;19958;-84
2021/08/11 04:46:21;;;;;;;;;;;15.60;99.90;;;;;;5089137;28;19946;-84
2021/08/11 04:48:46;;;;;;;;;;;15.70;99.90;;;;;;5086606;28;19912;-84
2021/08/11 04:51:12;;;;;;;;;;;15.70;99.90;;;;;;5087326;28;20334;-84
2021/08/11 04:53:37;;;;;;;;;;;15.70;99.90;;;;;;5088821;28;19951;-84
2021/08/11 04:56:03;;;;;;;;;;;15.80;99.90;;;;;;5084735;28;19918;-84
2021/08/11 04:58:28;;;;;;;;;;;16.00;99.90;;;;;;5096580;28;19912;-84
2021/08/11 05:00:54;;;;;;;;;;;16.20;99.90;;;;;;5087989;28;19961;-84
2021/08/11 05:03:19;;;;;;;;;;;16.40;99.90;;;;;;5098638;28;19912;-84
2021/08/11 05:05:45;;;;;;;;;;;16.60;99.90;;;;;;5100057;28;19912;-84
2021/08/11 05:08:10;;;;;;;;;;;16.70;99.90;;;;;;5096086;28;19952;-84
2021/08/11 05:10:36;;;;;;;;;;;16.90;99.90;;;;;;5079929;28;19984;-84
2021/08/11 05:13:01;;;;;;;;;;;16.90;99.90;;;;;;5093923;28;19999;-84
2021/08/11 05:15:27;;;;;;;;;;;17.00;99.90;;;;;;5096393;28;19912;-84
2021/08/11 05:17:52;;;;;;;;;;;17.10;99.90;;;;;;5083013;28;19913;-84
2021/08/11 05:20:19;;;;;;;;;;;17.10;99.90;;;;;;5080977;28;19966;-84
2021/08/11 05:22:45;;;;;;;;;;;17.30;99.90;;;;;;5082837;28;19917;-84
2021/08/11 05:25:11;;;;;;;;;;;17.50;99.90;;;;;;5082325;28;19919;-84
2021/08/11 05:27:36;;;;;;;;;;;17.70;99.90;;;;;;5096381;28;19912;-84
2021/08/11 05:30:03;;;;;;;;;;;17.90;99.90;;;;;;5094283;28;20284;-85
2021/08/11 05:32:29;;;;;;;;;;;18.10;99.90;;;;;;5096006;28;19959;-84
2021/08/11 05:42:44;;;;;;;;;;;;;;;;;;;;;
2021/08/11 05:45:35;;;;;;;;;;;18.50;99.90;;;;;;5051869;28;19996;-85
2021/08/11 05:48:14;;;;;;;;;;;;;;;;;;;;;
2021/08/11 05:51:21;;;;;;;;;;;19.20;99.90;;;;;;5055367;28;19976;-85
2021/08/11 05:54:36;;;;;;;;;;;;;;;;;;;;;
2021/08/11 05:57:24;;;;;;;;;;;;;;;;;;;;;
2021/08/11 06:00:19;;;;;;;;;;;21.10;99.90;;;;;;5061498;28;19968;-85
2021/08/11 06:06:01;;;;;;;;;;;;;;;;;;;;;
2021/08/11 06:15:01;;;;;;;;;;;25.60;99.90;;;;;;5029027;28;19971;-86
2021/08/11 06:18:08;;;;;;;;;;;29.80;99.90;;;;;;5033767;28;19913;-84
2021/08/11 06:27:15;;;;;;;;;;;42.10;57.70;;;;;;5032525;28;19913;-84
2021/08/11 06:29:51;;;;;;;;;;;;;;;;;;;;;
2021/08/11 06:32:26;;;;;;;;;;;;;;;;;;;;;
2021/08/11 06:34:52;;;;;;;;;;;45.40;48.70;;;;;;5034369;28;20016;-84
2021/08/11 06:37:18;;;;;;;;;;;44.90;49.30;;;;;;5036485;28;20530;-84
2021/08/11 06:39:44;;;;;;;;;;;45.00;49.90;;;;;;5035325;28;20000;-84
2021/08/11 06:42:10;;;;;;;;;;;42.60;49.90;;;;;;5036795;28;19955;-84
2021/08/11 06:44:35;;;;;;;;;;;40.80;52.90;;;;;;5036283;28;19944;-84
2021/08/11 06:47:03;;;;;;;;;;;39.60;53.00;;;;;;5035242;28;19913;-85
2021/08/11 06:49:29;;;;;;;;;;;39.00;56.70;;;;;;5038074;28;20008;-84
2021/08/11 06:51:57;;;;;;;;;;;40.60;54.90;;;;;;5033743;28;19960;-84
2021/08/11 06:54:24;;;;;;;;;;;43.60;52.10;;;;;;5031762;28;20014;-84
2021/08/11 06:56:52;;;;;;;;;;;45.60;49.30;;;;;;5037141;28;19919;-84
2021/08/11 06:59:18;;;;;;;;;;;47.50;47.40;;;;;;5039831;28;19945;-84
2021/08/11 07:01:43;;;;;;;;;;;49.10;45.80;;;;;;5041789;28;19921;-84
2021/08/11 07:04:08;;;;;;;;;;;49.90;44.80;;;;;;5041200;28;19932;-84
2021/08/11 07:06:34;;;;;;;;;;;50.50;43.90;;;;;;5037811;28;19963;-84
2021/08/11 07:08:59;;;;;;;;;;;50.60;43.40;;;;;;5042960;28;19916;-85
2021/08/11 07:11:25;;;;;;;;;;;50.70;43.20;;;;;;5041302;28;19921;-84
2021/08/11 07:13:50;;;;;;;;;;;50.80;43.10;;;;;;5043931;28;19935;-86
2021/08/11 07:16:16;;;;;;;;;;;50.80;42.90;;;;;;5043100;28;19936;-84
2021/08/11 07:18:42;;;;;;;;;;;50.70;42.90;;;;;;5042026;28;19976;-85
2021/08/11 07:21:07;;;;;;;;;;;50.90;42.70;;;;;;5043406;28;20000;-84
2021/08/11 07:23:37;;;;;;;;;;;50.60;42.70;;;;;;5027181;28;20430;-85
2021/08/11 07:26:03;;;;;;;;;;;50.30;42.70;;;;;;5030146;28;19917;-84
2021/08/11 07:28:31;;;;;;;;;;;50.20;43.00;;;;;;5041092;28;19953;-85
2021/08/11 07:30:56;;;;;;;;;;;50.90;42.50;;;;;;5042332;28;19940;-85
2021/08/11 07:33:24;;;;;;;;;;;52.10;41.50;;;;;;5034148;28;19996;-85
2021/08/11 07:35:50;;;;;;;;;;;52.90;40.50;;;;;;5041978;28;19917;-85
2021/08/11 07:38:18;;;;;;;;;;;53.40;39.60;;;;;;5037595;28;19991;-85
2021/08/11 07:40:43;;;;;;;;;;;52.80;39.50;;;;;;5042843;28;19929;-85
2021/08/11 07:43:09;;;;;;;;;;;52.40;39.60;;;;;;5035228;28;19959;-84
2021/08/11 07:45:37;;;;;;;;;;;51.40;40.30;;;;;;5032574;28;19913;-84
2021/08/11 07:48:05;;;;;;;;;;;50.40;40.70;;;;;;5031947;28;20392;-84
2021/08/11 07:50:32;;;;;;;;;;;49.10;41.70;;;;;;5028720;28;19922;-84
2021/08/11 07:52:58;;;;;;;;;;;48.40;42.00;;;;;;5029577;28;19921;-85
2021/08/11 07:55:26;;;;;;;;;;;46.60;42.80;;;;;;5031496;28;19935;-84
2021/08/11 07:57:54;;;;;;;;;;;44.30;45.00;;;;;;5029156;28;20413;-84
2021/08/11 08:00:22;;;;;;;;;;;42.30;46.50;;;;;;5026627;28;19920;-84
2021/08/11 08:02:47;;;;;;;;;;;43.40;46.80;;;;;;5030320;28;20353;-84
2021/08/11 08:05:13;;;;;;;;;;;43.20;45.30;;;;;;5029848;28;19913;-84
2021/08/11 08:07:38;;;;;;;;;;;41.30;46.90;;;;;;5029744;28;20320;-84
2021/08/11 08:10:04;;;;;;;;;;;39.20;49.50;;;;;;5029400;28;19913;-83
2021/08/11 08:12:30;;;;;;;;;;;39.80;48.90;;;;;;5030449;28;20381;-84
2021/08/11 08:14:56;;;;;;;;;;;38.40;49.20;;;;;;5027373;28;19996;-83
2021/08/11 08:17:21;;;;;;;;;;;36.70;51.00;;;;;;5032997;28;19944;-83
2021/08/11 08:19:47;;;;;;;;;;;35.10;52.30;;;;;;5033574;28;19924;-83
2021/08/11 08:22:16;;;;;;;;;;;33.90;53.90;;;;;;5030113;28;20548;-84
2021/08/11 08:24:42;;;;;;;;;;;35.20;52.70;;;;;;5031859;28;19916;-85
2021/08/11 08:27:07;;;;;;;;;;;37.30;50.70;;;;;;5019460;28;20016;-85
2021/08/11 08:29:36;;;;;;;;;;;40.40;47.20;;;;;;5033550;28;19999;-85
2021/08/11 08:32:04;;;;;;;;;;;41.70;44.40;;;;;;5029805;28;19959;-85
2021/08/11 08:34:29;;;;;;;;;;;43.00;43.30;;;;;;5020030;28;19925;-85
2021/08/11 08:36:55;;;;;;;;;;;45.40;42.10;;;;;;5030927;28;20304;-85
2021/08/11 08:39:22;;;;;;;;;;;47.40;40.40;;;;;;5030475;28;19917;-85
2021/08/11 08:41:57;;;;;;;;;;;48.80;39.30;;;;;;5033511;28;20011;-85
2021/08/11 08:44:22;;;;;;;;;;;49.70;38.00;;;;;;5031154;28;19917;-86
2021/08/11 08:46:50;;;;;;;;;;;50.60;37.60;;;;;;5042712;28;19909;-86
2021/08/11 08:49:19;;;;;;;;;;;51.50;37.20;;;;;;5032901;28;20297;-85
2021/08/11 08:51:54;;;;;;;;;;;52.10;36.60;;;;;;5052115;28;19913;-86
2021/08/11 08:54:24;;;;;;;;;;;52.70;36.20;;;;;;5032898;28;19913;-87
2021/08/11 08:56:52;;;;;;;;;;;53.30;35.90;;;;;;5033264;28;19913;-86
2021/08/11 08:59:17;;;;;;;;;;;53.70;35.70;;;;;;5033062;28;19913;-87
2021/08/11 09:01:46;;;;;;;;;;;54.20;35.50;;;;;;5064623;28;19972;-87
2021/08/11 09:04:12;;;;;;;;;;;51.20;36.50;;;;;;5060408;28;19941;-86
2021/08/11 09:06:38;;;;;;;;;;;47.50;39.30;;;;;;5041490;28;20377;-85
2021/08/11 09:09:23;;;;;;;;;;;44.50;41.80;;;;;;5051029;28;19913;-84
2021/08/11 09:11:51;;;;;;;;;;;42.90;43.30;;;;;;5026465;28;19914;-85
2021/08/11 09:14:17;;;;;;;;;;;43.30;43.50;;;;;;5029158;28;19987;-86
2021/08/11 09:16:46;;;;;;;;;;;43.80;42.40;;;;;;5033969;28;20369;-85
2021/08/11 09:19:13;;;;;;;;;;;42.60;42.50;;;;;;5031750;28;19909;-85
2021/08/11 09:21:41;;;;;;;;;;;40.70;44.00;;;;;;5031856;28;19909;-84
2021/08/11 09:24:17;;;;;;;;;;;39.20;45.60;;;;;;5031729;28;19920;-85
2021/08/11 09:26:43;;;;;;;;;;;39.20;45.70;;;;;;5026996;28;19916;-85
2021/08/11 09:29:25;;;;;;;;;;;39.60;45.50;;;;;;5030937;28;19909;-85
2021/08/11 09:32:15;;;;;;;;;;;;;;;;;;;;;
2021/08/11 09:34:59;;;;;;;;;;;;;;;;;;;;;
2021/08/11 09:38:10;;;;;;;;;;;;;;;;;;;;;
2021/08/11 09:40:49;;;;;;;;;;;;;;;;;;;;;
2021/08/11 09:43:23;;;;;;;;;;;38.00;45.60;;;;;;5033589;28;19915;-86
2021/08/11 09:46:16;;;;;;;;;;;38.00;45.30;;;;;;5028047;28;19917;-84
2021/08/11 09:48:51;;;;;;;;;;;37.40;45.60;;;;;;5014189;28;19960;-84
2021/08/11 09:54:16;;;;;;;;;;;;;;;;;;;;;
2021/08/11 09:57:23;;;;;;;;;;;37.20;45.60;;;;;;5028229;28;19916;-85
2021/08/11 10:00:02;;;;;;;;;;;38.00;44.90;;;;;;5033404;28;20293;-84
2021/08/11 10:02:27;;;;;;;;;;;38.70;44.00;;;;;;5026332;28;20420;-85
2021/08/11 10:04:53;;;;;;;;;;;38.00;44.20;;;;;;5013555;28;19921;-85
2021/08/11 10:07:18;;;;;;;;;;;37.40;44.70;;;;;;5012784;28;19913;-85
2021/08/11 10:09:59;;;;;;;;;;;37.00;44.80;;;;;;5013144;28;19910;-85
2021/08/11 10:12:27;;;;;;;;;;;36.50;45.10;;;;;;5015955;28;19952;-84
2021/08/11 10:14:53;;;;;;;;;;;35.80;45.90;;;;;;5032178;28;20421;-85
2021/08/11 10:17:18;;;;;;;;;;;36.60;45.70;;;;;;5038529;28;19952;-84
2021/08/11 10:19:44;;;;;;;;;;;36.80;44.70;;;;;;5033966;28;19936;-85
2021/08/11 10:22:11;;;;;;;;;;;36.70;44.70;;;;;;5030455;28;20334;-85
2021/08/11 10:24:38;;;;;;;;;;;37.30;44.40;;;;;;5013657;28;19909;-85
2021/08/11 10:27:10;;;;;;;;;;;38.30;44.00;;;;;;5014209;28;19917;-85
2021/08/11 10:29:36;;;;;;;;;;;39.10;43.20;;;;;;5017820;28;19909;-85
2021/08/11 10:32:04;;;;;;;;;;;38.90;43.20;;;;;;5031678;28;20554;-85
2021/08/11 10:34:30;;;;;;;;;;;39.60;42.80;;;;;;5033194;28;19909;-85
2021/08/11 10:36:59;;;;;;;;;;;40.50;42.40;;;;;;5032499;28;19913;-85
2021/08/11 10:39:25;;;;;;;;;;;40.70;41.70;;;;;;5032342;28;20400;-85
2021/08/11 10:41:55;;;;;;;;;;;40.80;41.80;;;;;;5031027;28;19921;-85
2021/08/11 10:44:25;;;;;;;;;;;41.40;41.30;;;;;;5033087;28;19913;-86
2021/08/11 10:46:58;;;;;;;;;;;41.40;41.20;;;;;;5042495;28;19915;-85
2021/08/11 10:49:27;;;;;;;;;;;41.20;40.90;;;;;;5034810;28;19920;-85
2021/08/11 10:51:58;;;;;;;;;;;40.50;41.20;;;;;;5018483;28;19917;-85
2021/08/11 10:54:26;;;;;;;;;;;39.30;42.20;;;;;;5031387;28;19970;-85
2021/08/11 10:56:53;;;;;;;;;;;39.10;42.40;;;;;;5029981;28;19917;-85
2021/08/11 10:59:21;;;;;;;;;;;38.60;42.70;;;;;;5029336;28;19924;-85
2021/08/11 11:01:54;;;;;;;;;;;37.80;43.40;;;;;;5031039;28;19959;-85
2021/08/11 11:04:38;;;;;;;;;;;36.90;43.90;;;;;;5030262;28;19936;-85
2021/08/11 11:07:13;;;;;;;;;;;36.30;44.40;;;;;;5031749;28;19921;-85
2021/08/11 11:09:43;;;;;;;;;;;35.90;44.40;;;;;;5023816;28;19917;-85
2021/08/11 11:12:17;;;;;;;;;;;35.20;44.60;;;;;;5021644;28;20007;-85
2021/08/11 11:14:44;;;;;;;;;;;34.60;45.10;;;;;;5030005;28;19912;-84
2021/08/11 11:17:22;;;;;;;;;;;;;;;;;;;;;
2021/08/11 11:20:09;;;;;;;;;;;34.00;45.70;;;;;;5030680;28;19917;-85
2021/08/11 11:22:38;;;;;;;;;;;35.10;45.30;;;;;;5010705;28;20452;-85
2021/08/11 11:25:05;;;;;;;;;;;35.60;44.20;;;;;;5009909;28;20347;-86
2021/08/11 11:27:50;;;;;;;;;;;35.80;43.90;;;;;;5018463;28;19921;-85
2021/08/11 11:30:33;;;;;;;;;;;36.80;43.30;;;;;;5021964;28;19914;-84
2021/08/11 11:33:17;;;;;;;;;;;37.80;42.70;;;;;;5019822;28;19923;-85
2021/08/11 11:35:46;;;;;;;;;;;38.10;41.90;;;;;;5029639;28;19913;-85
2021/08/11 11:38:12;;;;;;;;;;;38.20;41.70;;;;;;5031203;28;19913;-85
2021/08/11 11:40:56;;;;;;;;;;;37.40;41.80;;;;;;5028932;28;20048;-85
2021/08/11 11:43:22;;;;;;;;;;;37.70;41.10;;;;;;5028035;28;20063;-84
2021/08/11 11:45:48;;;;;;;;;;;37.90;41.30;;;;;;5025354;28;19932;-84
2021/08/11 11:48:14;;;;;;;;;;;38.10;41.40;;;;;;5026834;28;19913;-85
2021/08/11 11:50:49;;;;;;;;;;;37.80;40.70;;;;;;5026100;28;19928;-85
2021/08/11 11:53:25;;;;;;;;;;;37.70;40.80;;;;;;5026837;28;19914;-85
2021/08/11 11:55:53;;;;;;;;;;;37.70;40.90;;;;;;5024108;28;19917;-85
2021/08/11 11:58:20;;;;;;;;;;;37.60;40.80;;;;;;5020498;28;19924;-86
2021/08/11 12:00:49;;;;;;;;;;;38.50;40.40;;;;;;5032389;28;20442;-84
2021/08/11 12:03:15;;;;;;;;;;;39.40;39.70;;;;;;5033383;28;19917;-85
2021/08/11 12:05:42;;;;;;;;;;;40.10;39.20;;;;;;5029684;28;19999;-86
2021/08/11 12:08:23;;;;;;;;;;;40.60;38.80;;;;;;5028091;28;19917;-85
2021/08/11 12:10:49;;;;;;;;;;;41.10;38.40;;;;;;5025305;28;20712;-85
2021/08/11 12:13:16;;;;;;;;;;;41.40;37.80;;;;;;5029003;28;19923;-85
2021/08/11 12:16:02;;;;;;;;;;;40.90;37.80;;;;;;5029246;28;20015;-85
2021/08/11 12:18:27;;;;;;;;;;;40.60;38.10;;;;;;5029645;28;19921;-85
2021/08/11 12:21:07;;;;;;;;;;;40.70;37.60;;;;;;5031851;28;19913;-84
2021/08/11 12:23:35;;;;;;;;;;;39.30;37.80;;;;;;5019671;28;19920;-85
2021/08/11 12:26:07;;;;;;;;;;;38.80;38.50;;;;;;5033668;28;19936;-86
2021/08/11 12:28:37;;;;;;;;;;;39.40;38.00;;;;;;5028064;28;19913;-84
2021/08/11 12:31:23;;;;;;;;;;;39.70;37.60;;;;;;5037705;28;19920;-85
2021/08/11 12:33:53;;;;;;;;;;;39.90;37.50;;;;;;5034824;28;19921;-85
2021/08/11 12:36:26;;;;;;;;;;;40.10;37.30;;;;;;5034037;28;20442;-85
2021/08/11 12:38:58;;;;;;;;;;;40.10;37.00;;;;;;5034289;28;19909;-85
2021/08/11 12:41:24;;;;;;;;;;;40.10;37.10;;;;;;5034299;28;19949;-85
2021/08/11 12:43:53;;;;;;;;;;;40.20;37.20;;;;;;5035291;28;20007;-85
2021/08/11 12:46:39;;;;;;;;;;;40.30;36.90;;;;;;5034822;28;19937;-85
2021/08/11 12:49:23;;;;;;;;;;;39.50;37.00;;;;;;5033574;28;19920;-85
2021/08/11 12:52:08;;;;;;;;;;;38.70;38.00;;;;;;5033624;28;19921;-85
2021/08/11 12:55:02;;;;;;;;;;;38.90;38.00;;;;;;5047322;28;19990;-84
2021/08/11 12:57:46;;;;;;;;;;;38.80;37.60;;;;;;5041627;28;20007;-85
2021/08/11 13:00:17;;;;;;;;;;;38.70;37.70;;;;;;5022387;28;19914;-85
2021/08/11 13:02:45;;;;;;;;;;;38.50;37.30;;;;;;5033340;28;19913;-85
2021/08/11 13:05:17;;;;;;;;;;;38.20;37.40;;;;;;5020562;28;19916;-84
2021/08/11 13:07:58;;;;;;;;;;;37.90;37.60;;;;;;5035254;28;19913;-85
2021/08/11 13:10:41;;;;;;;;;;;37.60;37.80;;;;;;5033142;28;19909;-84
2021/08/11 13:13:19;;;;;;;;;;;37.50;38.00;;;;;;5034784;28;19917;-85
2021/08/11 13:16:05;;;;;;;;;;;37.40;38.10;;;;;;5030892;28;19921;-84
2021/08/11 13:18:33;;;;;;;;;;;37.20;38.10;;;;;;5026866;28;19913;-85
2021/08/11 13:20:58;;;;;;;;;;;36.80;38.00;;;;;;5017997;28;19917;-85
2021/08/11 13:23:24;;;;;;;;;;;36.50;38.00;;;;;;5033470;28;19920;-85
2021/08/11 13:25:51;;;;;;;;;;;36.30;38.10;;;;;;5046540;28;20004;-85
2021/08/11 13:28:21;;;;;;;;;;;36.20;38.30;;;;;;5064043;28;20300;-85
2021/08/11 13:30:47;;;;;;;;;;;36.10;38.40;;;;;;5056046;28;19917;-84
2021/08/11 13:33:15;;;;;;;;;;;35.90;38.30;;;;;;5033073;28;20370;-85
2021/08/11 13:35:42;;;;;;;;;;;35.80;38.50;;;;;;5025256;28;20004;-85
2021/08/11 13:38:10;;;;;;;;;;;35.70;38.50;;;;;;5032182;28;19916;-85
2021/08/11 13:40:36;;;;;;;;;;;35.50;38.40;;;;;;5032793;28;19913;-84
2021/08/11 13:43:09;;;;;;;;;;;35.20;38.60;;;;;;5032367;28;20314;-85
2021/08/11 13:45:57;;;;;;;;;;;35.10;38.80;;;;;;5034459;28;19913;-85
2021/08/11 13:51:31;;;;;;;;;;;35.10;39.20;;;;;;5012629;28;19964;-84
2021/08/11 13:54:26;;;;;;;;;;;;;;;;;;;;;
2021/08/11 13:57:43;;;;;;;;;;;;;;;;;;;;;
2021/08/11 14:00:03;;;;;;;;;;;35.00;39.00;;;;;;5011923;28;19937;-85
2021/08/11 14:05:44;;;;;;;;;;;33.80;39.20;;;;;;5034009;28;19913;-84
2021/08/11 14:08:58;;;;;;;;;;;33.50;39.40;;;;;;5030299;28;20003;-85
2021/08/11 14:11:29;;;;;;;;;;;;;;;;;;;;;
2021/08/11 14:14:33;;;;;;;;;;;;;;;;;;;;;
2021/08/11 14:16:59;;;;;;;;;;;34.10;39.30;;;;;;5030490;28;20403;-85
2021/08/11 14:19:27;;;;;;;;;;;34.20;39.40;;;;;;5034305;28;19995;-85
2021/08/11 14:21:52;;;;;;;;;;;33.80;39.70;;;;;;5031180;28;19920;-84
2021/08/11 14:24:18;;;;;;;;;;;33.80;40.00;;;;;;5033807;28;19917;-84
2021/08/11 14:26:49;;;;;;;;;;;33.70;40.00;;;;;;5030664;28;19967;-85
2021/08/11 14:29:14;;;;;;;;;;;33.50;40.00;;;;;;5033475;28;20428;-85
2021/08/11 14:31:41;;;;;;;;;;;33.20;40.30;;;;;;5052433;28;19959;-84
2021/08/11 14:34:11;;;;;;;;;;;32.90;40.50;;;;;;5048200;28;19916;-84
2021/08/11 14:36:37;;;;;;;;;;;32.80;40.80;;;;;;5033803;28;19909;-84
2021/08/11 14:39:05;;;;;;;;;;;32.60;41.00;;;;;;5034073;28;19913;-84
2021/08/11 14:41:31;;;;;;;;;;;32.30;41.00;;;;;;5031827;28;19917;-84
2021/08/11 14:43:59;;;;;;;;;;;31.90;41.20;;;;;;5029139;28;20288;-84
2021/08/11 14:46:25;;;;;;;;;;;31.70;41.60;;;;;;5031823;28;20377;-84
2021/08/11 14:48:55;;;;;;;;;;;31.60;41.80;;;;;;5030966;28;19913;-84
2021/08/11 14:51:20;;;;;;;;;;;31.60;41.80;;;;;;5031277;28;20401;-85
2021/08/11 14:53:46;;;;;;;;;;;31.50;41.80;;;;;;5031541;28;19947;-84
2021/08/11 14:56:12;;;;;;;;;;;31.30;42.00;;;;;;5032683;28;19952;-84
2021/08/11 14:58:40;;;;;;;;;;;31.10;42.10;;;;;;5031403;28;19920;-85
2021/08/11 15:01:08;;;;;;;;;;;31.10;42.30;;;;;;5031693;28;19913;-84
2021/08/11 15:03:46;;;;;;;;;;;;;;;;;;;;;
2021/08/11 15:06:24;;;;;;;;;;;;;;;;;;;;;
2021/08/11 15:09:31;;;;;;;;;;;31.10;42.60;;;;;;5041192;28;19909;-85
2021/08/11 15:12:23;;;;;;;;;;;31.00;42.60;;;;;;5028357;28;19924;-85
2021/08/11 15:18:27;;;;;;;;;;;;;;;;;;;;;
2021/08/11 15:23:38;;;;;;;;;;;30.50;42.90;;;;;;5004922;28;20453;-84
2021/08/11 15:26:05;;;;;;;;;;;30.30;43.20;;;;;;5030902;28;19971;-85
2021/08/11 15:28:31;;;;;;;;;;;30.20;43.40;;;;;;5032585;28;19972;-84
2021/08/11 15:30:56;;;;;;;;;;;30.10;44.00;;;;;;5036863;28;19917;-85
2021/08/11 15:33:24;;;;;;;;;;;30.10;43.60;;;;;;5044206;28;19918;-85